sensor_id;sensor_type;location;lat;lon;timestamp;pressure;altitude;pressure_sealevel;temperature;humidity
57904;BME280;43720;47.462;19.030;2023-05-10T03:50:23;100545.50;;;12.02;77.41
57904;BME280;43720;47.462;19.030;2023-05-10T03:53:26;100541.16;;;12.01;77.68
57904;BME280;43720;47.462;19.030;2023-05-10T03:56:29;100542.97;;;12.08;77.15
57904;BME280;43720;47.462;19.030;2023-05-10T03:59:32;100548.22;;;12.08;77.17
57904;BME280;43720;47.462;19.030;2023-05-10T04:02:34;100540.28;;;12.02;77.02
57904;BME280;43720;47.462;19.030;2023-05-10T04:05:37;100543.94;;;12.16;77.22
57904;BME280;43720;47.462;19.030;2023-05-10T04:08:39;100541.31;;;12.19;76.47
57904;BME280;43720;47.462;19.030;2023-05-10T04:11:42;100549.25;;;12.27;74.88
57904;BME280;43720;47.462;19.030;2023-05-10T04:14:44;100541.47;;;12.32;74.73
57904;BME280;43720;47.462;19.030;2023-05-10T04:17:46;100536.13;;;12.21;75.78
57904;BME280;43720;47.462;19.030;2023-05-10T04:20:49;100534.44;;;12.31;75.09
57904;BME280;43720;47.462;19.030;2023-05-10T04:23:51;100543.34;;;12.45;73.56
57904;BME280;43720;47.462;19.030;2023-05-10T04:26:54;100543.25;;;12.37;74.94
57904;BME280;43720;47.462;19.030;2023-05-10T04:29:59;100544.94;;;12.29;75.13
57904;BME280;43720;47.462;19.030;2023-05-10T04:33:01;100544.94;;;12.28;75.33
57904;BME280;43720;47.462;19.030;2023-05-10T04:36:06;100539.84;;;12.43;73.85
57904;BME280;43720;47.462;19.030;2023-05-10T04:39:09;100545.91;;;12.42;74.39
57904;BME280;43720;47.462;19.030;2023-05-10T04:42:12;100553.62;;;12.23;75.47
57904;BME280;43720;47.462;19.030;2023-05-10T04:45:16;100549.31;;;12.29;75.35
57904;BME280;43720;47.462;19.030;2023-05-10T04:48:19;100551.03;;;12.30;74.92
57904;BME280;43720;47.462;19.030;2023-05-10T04:51:21;100546.75;;;12.38;74.37
57904;BME280;43720;47.462;19.030;2023-05-10T04:54:23;100553.78;;;12.42;74.31
57904;BME280;43720;47.462;19.030;2023-05-10T04:57:26;100551.44;;;12.72;72.54
57904;BME280;43720;47.462;19.030;2023-05-10T05:00:28;100548.78;;;12.66;73.25
57904;BME280;43720;47.462;19.030;2023-05-10T05:03:30;100550.56;;;12.70;72.82
57904;BME280;43720;47.462;19.030;2023-05-10T05:06:33;100547.88;;;12.64;73.13
57904;BME280;43720;47.462;19.030;2023-05-10T05:09:35;100547.88;;;12.63;73.89
57904;BME280;43720;47.462;19.030;2023-05-10T05:12:37;100551.41;;;12.68;74.89
57904;BME280;43720;47.462;19.030;2023-05-10T05:15:39;100547.97;;;12.75;73.76
57904;BME280;43720;47.462;19.030;2023-05-10T05:18:42;100556.00;;;12.96;73.11
57904;BME280;43720;47.462;19.030;2023-05-10T05:21:44;100548.19;;;13.01;73.01
57904;BME280;43720;47.462;19.030;2023-05-10T05:24:47;100552.66;;;13.17;71.20
57904;BME280;43720;47.462;19.030;2023-05-10T05:27:49;100554.56;;;13.34;71.04
57904;BME280;43720;47.462;19.030;2023-05-10T05:30:51;100559.75;;;13.26;70.69
57904;BME280;43720;47.462;19.030;2023-05-10T05:33:54;100566.66;;;13.19;70.81
57904;BME280;43720;47.462;19.030;2023-05-10T05:36:56;100559.69;;;13.21;70.75
57904;BME280;43720;47.462;19.030;2023-05-10T05:39:58;100564.09;;;13.24;71.35
57904;BME280;43720;47.462;19.030;2023-05-10T05:43:02;100566.81;;;13.33;70.64
57904;BME280;43720;47.462;19.030;2023-05-10T05:46:04;100570.38;;;13.44;70.84
57904;BME280;43720;47.462;19.030;2023-05-10T05:49:07;100570.47;;;13.66;69.08
57904;BME280;43720;47.462;19.030;2023-05-10T05:52:09;100570.47;;;13.61;70.05
57904;BME280;43720;47.462;19.030;2023-05-10T05:55:12;100579.22;;;13.65;70.11
57904;BME280;43720;47.462;19.030;2023-05-10T05:58:14;100571.38;;;13.63;68.86
57904;BME280;43720;47.462;19.030;2023-05-10T06:01:17;100576.66;;;13.77;68.35
57904;BME280;43720;47.462;19.030;2023-05-10T06:04:19;100574.94;;;13.79;69.15
57904;BME280;43720;47.462;19.030;2023-05-10T06:07:22;100585.47;;;13.85;69.60
57904;BME280;43720;47.462;19.030;2023-05-10T06:10:24;100574.97;;;13.93;67.87
57904;BME280;43720;47.462;19.030;2023-05-10T06:13:27;100575.91;;;13.98;68.20
57904;BME280;43720;47.462;19.030;2023-05-10T06:16:38;100584.66;;;13.99;68.55
57904;BME280;43720;47.462;19.030;2023-05-10T06:19:55;100580.34;;;14.19;67.77
57904;BME280;43720;47.462;19.030;2023-05-10T06:22:58;100575.94;;;14.16;66.46
57904;BME280;43720;47.462;19.030;2023-05-10T06:26:00;100581.19;;;14.19;66.76
57904;BME280;43720;47.462;19.030;2023-05-10T06:29:02;100593.50;;;14.36;66.30
57904;BME280;43720;47.462;19.030;2023-05-10T06:32:05;100577.75;;;14.42;65.29
57904;BME280;43720;47.462;19.030;2023-05-10T06:35:07;100590.97;;;14.53;65.52
57904;BME280;43720;47.462;19.030;2023-05-10T06:38:10;100588.34;;;14.57;65.66
57904;BME280;43720;47.462;19.030;2023-05-10T06:41:12;100590.97;;;14.71;63.75
57904;BME280;43720;47.462;19.030;2023-05-10T06:44:15;100584.84;;;14.66;64.35
57904;BME280;43720;47.462;19.030;2023-05-10T06:47:17;100582.22;;;14.75;64.42
57904;BME280;43720;47.462;19.030;2023-05-10T06:50:20;100583.09;;;14.88;65.45
57904;BME280;43720;47.462;19.030;2023-05-10T06:53:22;100577.81;;;15.15;63.49
57904;BME280;43720;47.462;19.030;2023-05-10T06:56:24;100572.56;;;15.15;61.60
57904;BME280;43720;47.462;19.030;2023-05-10T06:59:27;100578.69;;;15.22;62.53
57904;BME280;43720;47.462;19.030;2023-05-10T07:02:29;100566.37;;;15.32;62.41
57904;BME280;43720;47.462;19.030;2023-05-10T07:05:32;100573.38;;;15.47;62.38
57904;BME280;43720;47.462;19.030;2023-05-10T07:08:34;100575.13;;;15.46;60.66
57904;BME280;43720;47.462;19.030;2023-05-10T07:11:36;100568.91;;;15.64;61.30
57904;BME280;43720;47.462;19.030;2023-05-10T07:14:39;100561.03;;;15.62;61.29
57904;BME280;43720;47.462;19.030;2023-05-10T07:17:42;100570.72;;;15.60;62.95
57904;BME280;43720;47.462;19.030;2023-05-10T07:20:46;100569.81;;;15.77;62.98
57904;BME280;43720;47.462;19.030;2023-05-10T07:23:49;100568.84;;;15.93;61.71
57904;BME280;43720;47.462;19.030;2023-05-10T07:26:51;100571.47;;;15.95;62.22
57904;BME280;43720;47.462;19.030;2023-05-10T07:29:54;100564.34;;;16.13;60.96
57904;BME280;43720;47.462;19.030;2023-05-10T07:32:57;100568.78;;;16.11;62.76
57904;BME280;43720;47.462;19.030;2023-05-10T07:35:59;100565.22;;;16.19;61.61
57904;BME280;43720;47.462;19.030;2023-05-10T07:39:02;100559.84;;;16.32;60.58
57904;BME280;43720;47.462;19.030;2023-05-10T07:42:05;100562.31;;;16.60;59.35
57904;BME280;43720;47.462;19.030;2023-05-10T07:45:08;100557.91;;;16.60;57.63
57904;BME280;43720;47.462;19.030;2023-05-10T07:48:10;100554.31;;;16.71;57.68
57904;BME280;43720;47.462;19.030;2023-05-10T07:51:12;100555.22;;;16.67;57.94
57904;BME280;43720;47.462;19.030;2023-05-10T07:54:15;100557.09;;;16.54;59.00
57904;BME280;43720;47.462;19.030;2023-05-10T07:57:18;100566.84;;;16.41;57.38
57904;BME280;43720;47.462;19.030;2023-05-10T08:00:20;100557.31;;;16.17;58.41
57904;BME280;43720;47.462;19.030;2023-05-10T08:03:23;100551.94;;;16.32;59.14
57904;BME280;43720;47.462;19.030;2023-05-10T08:06:25;100569.56;;;16.30;59.06
57904;BME280;43720;47.462;19.030;2023-05-10T08:09:32;100562.50;;;16.34;59.30
57904;BME280;43720;47.462;19.030;2023-05-10T08:12:34;100566.91;;;16.29;59.87
57904;BME280;43720;47.462;19.030;2023-05-10T08:15:37;100562.34;;;16.55;60.42
57904;BME280;43720;47.462;19.030;2023-05-10T08:18:42;100555.00;;;16.96;60.00
57904;BME280;43720;47.462;19.030;2023-05-10T08:21:48;100554.12;;;16.95;56.86
57904;BME280;43720;47.462;19.030;2023-05-10T08:24:50;100562.97;;;16.93;56.89
57904;BME280;43720;47.462;19.030;2023-05-10T08:27:53;100554.09;;;16.98;58.06
57904;BME280;43720;47.462;19.030;2023-05-10T08:30:55;100555.75;;;17.13;56.34
57904;BME280;43720;47.462;19.030;2023-05-10T08:33:58;100555.78;;;17.08;55.99
57904;BME280;43720;47.462;19.030;2023-05-10T08:37:00;100551.97;;;17.37;56.65
57904;BME280;43720;47.462;19.030;2023-05-10T08:40:03;100549.00;;;17.65;55.42
57904;BME280;43720;47.462;19.030;2023-05-10T08:43:08;100551.59;;;17.71;55.06
57904;BME280;43720;47.462;19.030;2023-05-10T08:46:11;100550.16;;;17.44;55.15
57904;BME280;43720;47.462;19.030;2023-05-10T08:49:17;100553.84;;;17.26;56.50
57904;BME280;43720;47.462;19.030;2023-05-10T08:52:22;100549.66;;;17.05;57.96
57904;BME280;43720;47.462;19.030;2023-05-10T08:55:27;100551.38;;;17.07;55.47
57904;BME280;43720;47.462;19.030;2023-05-10T08:58:30;100547.03;;;17.02;54.40
57904;BME280;43720;47.462;19.030;2023-05-10T09:01:34;100547.97;;;16.96;56.00
57904;BME280;43720;47.462;19.030;2023-05-10T09:04:37;100544.44;;;16.96;54.55
57904;BME280;43720;47.462;19.030;2023-05-10T09:07:39;100554.03;;;17.09;55.29
57904;BME280;43720;47.462;19.030;2023-05-10T09:10:43;100545.66;;;17.49;54.16
57904;BME280;43720;47.462;19.030;2023-05-10T09:13:47;100545.37;;;17.73;53.38
57904;BME280;43720;47.462;19.030;2023-05-10T09:16:50;100554.38;;;17.57;54.69
57904;BME280;43720;47.462;19.030;2023-05-10T09:19:59;100535.78;;;17.65;52.93
57904;BME280;43720;47.462;19.030;2023-05-10T09:23:02;100535.53;;;17.88;52.96
57904;BME280;43720;47.462;19.030;2023-05-10T09:26:05;100545.09;;;17.99;51.20
57904;BME280;43720;47.462;19.030;2023-05-10T09:29:07;100548.87;;;17.80;51.98
57904;BME280;43720;47.462;19.030;2023-05-10T09:32:10;100534.81;;;17.76;52.28
57904;BME280;43720;47.462;19.030;2023-05-10T09:35:20;100533.66;;;17.96;52.73
57904;BME280;43720;47.462;19.030;2023-05-10T09:38:24;100530.78;;;18.14;52.60
57904;BME280;43720;47.462;19.030;2023-05-10T09:41:27;100524.69;;;18.09;51.87
57904;BME280;43720;47.462;19.030;2023-05-10T09:44:31;100518.31;;;18.24;52.11
57904;BME280;43720;47.462;19.030;2023-05-10T09:47:35;100521.59;;;18.38;51.34
57904;BME280;43720;47.462;19.030;2023-05-10T09:50:37;100518.63;;;18.60;50.50
57904;BME280;43720;47.462;19.030;2023-05-10T09:53:41;100530.03;;;18.63;51.03
57904;BME280;43720;47.462;19.030;2023-05-10T09:56:43;100523.97;;;18.56;48.95
57904;BME280;43720;47.462;19.030;2023-05-10T09:59:46;100519.66;;;18.49;48.54
57904;BME280;43720;47.462;19.030;2023-05-10T10:02:57;100516.22;;;18.43;49.21
57904;BME280;43720;47.462;19.030;2023-05-10T10:05:59;100517.59;;;18.13;50.35
57904;BME280;43720;47.462;19.030;2023-05-10T10:09:02;100505.06;;;18.22;50.52
57904;BME280;43720;47.462;19.030;2023-05-10T10:12:05;100496.75;;;18.47;49.98
57904;BME280;43720;47.462;19.030;2023-05-10T10:15:08;100503.91;;;18.96;48.94
57904;BME280;43720;47.462;19.030;2023-05-10T10:18:14;100500.91;;;19.14;46.96
57904;BME280;43720;47.462;19.030;2023-05-10T10:21:17;100498.78;;;19.33;47.33
57904;BME280;43720;47.462;19.030;2023-05-10T10:24:20;100491.31;;;19.53;46.51
57904;BME280;43720;47.462;19.030;2023-05-10T10:27:55;100493.56;;;19.73;46.52
57904;BME280;43720;47.462;19.030;2023-05-10T10:31:11;100485.88;;;19.60;46.32
57904;BME280;43720;47.462;19.030;2023-05-10T10:34:25;100488.75;;;19.49;45.25
57904;BME280;43720;47.462;19.030;2023-05-10T10:37:43;100485.78;;;19.21;45.01
57904;BME280;43720;47.462;19.030;2023-05-10T10:40:46;100491.37;;;19.05;46.22
57904;BME280;43720;47.462;19.030;2023-05-10T10:47:24;100477.13;;;19.11;46.93
57904;BME280;43720;47.462;19.030;2023-05-10T10:50:27;100468.66;;;19.37;45.47
57904;BME280;43720;47.462;19.030;2023-05-10T10:53:30;100468.31;;;19.55;44.84
57904;BME280;43720;47.462;19.030;2023-05-10T10:56:32;100480.34;;;19.27;46.35
57904;BME280;43720;47.462;19.030;2023-05-10T10:59:44;100467.59;;;19.01;45.32
57904;BME280;43720;47.462;19.030;2023-05-10T11:03:03;100457.81;;;19.49;45.79
57904;BME280;43720;47.462;19.030;2023-05-10T11:06:08;100455.91;;;19.96;44.17
57904;BME280;43720;47.462;19.030;2023-05-10T11:09:11;100446.50;;;20.58;41.97
57904;BME280;43720;47.462;19.030;2023-05-10T11:12:14;100445.41;;;20.66;41.60
57904;BME280;43720;47.462;19.030;2023-05-10T11:15:16;100448.59;;;20.45;41.10
57904;BME280;43720;47.462;19.030;2023-05-10T11:18:29;100445.38;;;20.31;41.58
57904;BME280;43720;47.462;19.030;2023-05-10T11:21:33;100440.75;;;20.01;42.37
57904;BME280;43720;47.462;19.030;2023-05-10T11:24:36;100438.47;;;20.61;41.70
57904;BME280;43720;47.462;19.030;2023-05-10T11:27:41;100427.84;;;21.85;40.62
57904;BME280;43720;47.462;19.030;2023-05-10T11:30:44;100429.69;;;22.39;37.77
57904;BME280;43720;47.462;19.030;2023-05-10T11:33:51;100427.03;;;23.63;35.75
57904;BME280;43720;47.462;19.030;2023-05-10T11:36:55;100429.47;;;23.46;34.58
57904;BME280;43720;47.462;19.030;2023-05-10T11:39:58;100421.31;;;23.02;35.09
57904;BME280;43720;47.462;19.030;2023-05-10T11:43:01;100415.75;;;22.31;36.51
57904;BME280;43720;47.462;19.030;2023-05-10T11:46:05;100417.69;;;22.26;37.45
57904;BME280;43720;47.462;19.030;2023-05-10T11:49:08;100423.22;;;21.92;37.07
57904;BME280;43720;47.462;19.030;2023-05-10T11:52:11;100423.53;;;20.89;38.72
57904;BME280;43720;47.462;19.030;2023-05-10T11:55:13;100427.63;;;20.33;40.02
57904;BME280;43720;47.462;19.030;2023-05-10T11:58:18;100424.47;;;20.17;40.93
57904;BME280;43720;47.462;19.030;2023-05-10T12:01:21;100424.06;;;19.98;40.52
57904;BME280;43720;47.462;19.030;2023-05-10T12:04:24;100414.00;;;20.46;39.46
57904;BME280;43720;47.462;19.030;2023-05-10T12:07:27;100416.87;;;21.38;39.32
57904;BME280;43720;47.462;19.030;2023-05-10T12:10:34;100410.09;;;22.14;37.42
57904;BME280;43720;47.462;19.030;2023-05-10T12:13:40;100414.53;;;22.93;35.93
57904;BME280;43720;47.462;19.030;2023-05-10T12:16:43;100417.97;;;22.70;35.57
57904;BME280;43720;47.462;19.030;2023-05-10T12:19:45;100415.81;;;21.72;36.67
57904;BME280;43720;47.462;19.030;2023-05-10T12:22:53;100420.53;;;21.01;37.97
57904;BME280;43720;47.462;19.030;2023-05-10T12:26:02;100421.66;;;20.60;39.45
57904;BME280;43720;47.462;19.030;2023-05-10T12:29:13;100417.84;;;20.35;39.94
57904;BME280;43720;47.462;19.030;2023-05-10T12:32:15;100416.28;;;19.89;41.13
57904;BME280;43720;47.462;19.030;2023-05-10T12:35:18;100414.03;;;19.72;41.51
57904;BME280;43720;47.462;19.030;2023-05-10T12:41:32;100406.91;;;19.74;42.88
57904;BME280;43720;47.462;19.030;2023-05-10T12:44:34;100399.59;;;20.21;40.68
57904;BME280;43720;47.462;19.030;2023-05-10T12:47:37;100394.38;;;20.54;41.45
57904;BME280;43720;47.462;19.030;2023-05-10T12:50:41;100391.91;;;20.80;40.74
57904;BME280;43720;47.462;19.030;2023-05-10T12:53:44;100394.06;;;20.66;40.04
57904;BME280;43720;47.462;19.030;2023-05-10T12:56:50;100382.50;;;20.67;39.21
57904;BME280;43720;47.462;19.030;2023-05-10T12:59:54;100386.72;;;20.41;39.71
57904;BME280;43720;47.462;19.030;2023-05-10T13:02:56;100377.44;;;20.58;40.22
57904;BME280;43720;47.462;19.030;2023-05-10T13:05:58;100375.50;;;20.64;39.38
57904;BME280;43720;47.462;19.030;2023-05-10T13:09:00;100374.78;;;20.58;39.50
57904;BME280;43720;47.462;19.030;2023-05-10T13:12:03;100367.16;;;20.78;38.18
57904;BME280;43720;47.462;19.030;2023-05-10T13:15:06;100367.00;;;20.83;39.18
57904;BME280;43720;47.462;19.030;2023-05-10T13:18:08;100360.38;;;20.99;40.53
57904;BME280;43720;47.462;19.030;2023-05-10T13:21:11;100357.94;;;21.21;37.90
57904;BME280;43720;47.462;19.030;2023-05-10T13:24:13;100364.88;;;21.56;38.17
57904;BME280;43720;47.462;19.030;2023-05-10T13:27:16;100348.66;;;21.65;37.56
57904;BME280;43720;47.462;19.030;2023-05-10T13:30:18;100346.13;;;21.31;38.04
57904;BME280;43720;47.462;19.030;2023-05-10T13:33:20;100340.91;;;20.97;37.86
57904;BME280;43720;47.462;19.030;2023-05-10T13:36:23;100346.44;;;20.58;38.88
57904;BME280;43720;47.462;19.030;2023-05-10T13:39:25;100336.66;;;20.26;37.57
57904;BME280;43720;47.462;19.030;2023-05-10T13:42:27;100335.31;;;20.08;38.38
57904;BME280;43720;47.462;19.030;2023-05-10T13:45:30;100340.62;;;20.08;38.99
57904;BME280;43720;47.462;19.030;2023-05-10T13:48:32;100339.03;;;20.01;37.57
57904;BME280;43720;47.462;19.030;2023-05-10T13:51:35;100337.34;;;19.98;38.58
57904;BME280;43720;47.462;19.030;2023-05-10T13:54:37;100334.03;;;19.90;40.05
57904;BME280;43720;47.462;19.030;2023-05-10T13:57:40;100333.94;;;19.93;39.55
57904;BME280;43720;47.462;19.030;2023-05-10T14:00:42;100325.03;;;19.96;39.49
57904;BME280;43720;47.462;19.030;2023-05-10T14:03:45;100324.09;;;19.98;39.93
57904;BME280;43720;47.462;19.030;2023-05-10T14:06:47;100322.22;;;20.02;39.73
57904;BME280;43720;47.462;19.030;2023-05-10T14:09:50;100314.41;;;19.96;39.66
57904;BME280;43720;47.462;19.030;2023-05-10T14:12:52;100307.19;;;20.02;41.05
57904;BME280;43720;47.462;19.030;2023-05-10T14:15:54;100306.13;;;20.10;39.39
57904;BME280;43720;47.462;19.030;2023-05-10T14:18:57;100303.81;;;20.30;37.90
57904;BME280;43720;47.462;19.030;2023-05-10T14:21:59;100304.47;;;20.38;37.59
57904;BME280;43720;47.462;19.030;2023-05-10T14:25:02;100298.78;;;20.52;36.43
57904;BME280;43720;47.462;19.030;2023-05-10T14:28:04;100291.25;;;20.37;36.94
57904;BME280;43720;47.462;19.030;2023-05-10T14:31:06;100289.94;;;20.19;36.97
57904;BME280;43720;47.462;19.030;2023-05-10T14:34:09;100288.34;;;20.12;36.43
57904;BME280;43720;47.462;19.030;2023-05-10T14:37:13;100292.00;;;20.40;35.48
57904;BME280;43720;47.462;19.030;2023-05-10T14:40:16;100290.97;;;20.46;35.04
57904;BME280;43720;47.462;19.030;2023-05-10T14:43:19;100287.25;;;20.84;35.38
57904;BME280;43720;47.462;19.030;2023-05-10T14:46:21;100280.56;;;21.00;34.68
57904;BME280;43720;47.462;19.030;2023-05-10T14:49:23;100284.59;;;21.43;34.04
57904;BME280;43720;47.462;19.030;2023-05-10T14:52:27;100283.72;;;21.97;33.77
57904;BME280;43720;47.462;19.030;2023-05-10T14:55:29;100283.06;;;22.42;34.03
57904;BME280;43720;47.462;19.030;2023-05-10T14:58:32;100282.50;;;22.58;33.79
57904;BME280;43720;47.462;19.030;2023-05-10T15:01:36;100283.84;;;22.46;32.90
57904;BME280;43720;47.462;19.030;2023-05-10T15:04:49;100279.91;;;22.80;32.64
57904;BME280;43720;47.462;19.030;2023-05-10T15:07:52;100284.37;;;22.31;33.75
57904;BME280;43720;47.462;19.030;2023-05-10T15:10:55;100284.09;;;21.59;34.61
57904;BME280;43720;47.462;19.030;2023-05-10T15:13:57;100288.19;;;21.13;35.79
57904;BME280;43720;47.462;19.030;2023-05-10T15:17:00;100289.31;;;20.74;36.74
57904;BME280;43720;47.462;19.030;2023-05-10T15:20:02;100288.37;;;20.44;36.52
57904;BME280;43720;47.462;19.030;2023-05-10T15:23:08;100289.09;;;20.51;36.45
57904;BME280;43720;47.462;19.030;2023-05-10T15:26:10;100285.28;;;20.60;35.17
57904;BME280;43720;47.462;19.030;2023-05-10T15:29:12;100288.94;;;20.23;36.34
57904;BME280;43720;47.462;19.030;2023-05-10T15:32:21;100287.72;;;20.02;36.82
